Time;durP1;ratioP1;P1;durP2;ratioP2;P2;SDS_P1;SDS_P2;PMS_P1;PMS_P2;Temp;Humidity;BMP_temperature;BMP_pressure;BME280_temperature;BME280_humidity;BME280_pressure;Samples;Min_cycle;Max_cycle;Signal;HPM_P1;HPM_P2
2023/08/04 00:00:16;;;;;;;3.30;1.10;;;;;;;18.89;73.90;99484.13;223556;1264;140576;-90
2023/08/04 00:05:16;;;;;;;7.80;1.10;;;;;;;18.81;74.15;99489.05;224103;1264;138920;-88
2023/08/04 00:10:18;;;;;;;4.40;1.20;;;;;;;18.72;74.81;99485.88;223577;1263;226970;-90
2023/08/04 00:15:18;;;;;;;3.00;1.00;;;;;;;18.63;75.14;99497.27;224017;1268;139706;-88
2023/08/04 00:20:19;;;;;;;3.70;1.10;;;;;;;18.54;75.72;99508.14;223558;1266;140796;-86
2023/08/04 00:25:19;;;;;;;3.10;1.10;;;;;;;18.45;76.36;99512.48;223978;1267;138839;-88
2023/08/04 00:30:20;;;;;;;4.20;1.00;;;;;;;18.37;76.73;99512.23;223523;1264;140389;-87
2023/08/04 00:35:20;;;;;;;5.50;1.20;;;;;;;18.29;77.48;99499.52;224109;1268;138862;-86
2023/08/04 00:40:21;;;;;;;3.30;1.30;;;;;;;18.21;77.49;99508.71;223671;1268;140543;-87
2023/08/04 00:45:25;;;;;;;4.60;1.30;;;;;;;18.15;78.03;99515.52;224109;1268;138640;-86
2023/08/04 00:50:26;;;;;;;3.20;1.10;;;;;;;18.10;78.28;99509.80;223566;1264;141712;-89
2023/08/04 00:55:27;;;;;;;2.60;1.20;;;;;;;18.05;78.53;99518.17;224181;1264;138838;-87
2023/08/04 01:00:27;;;;;;;1.60;0.90;;;;;;;17.98;79.10;99518.02;223586;1264;140928;-88
2023/08/04 01:05:36;;;;;;;4.90;1.10;;;;;;;17.94;79.33;99524.04;224101;1264;139125;-89
2023/08/04 01:10:50;;;;;;;2.40;1.10;;;;;;;17.91;79.46;99532.73;223535;1268;142014;-91
2023/08/04 01:15:52;;;;;;;4.90;1.00;;;;;;;17.86;79.63;99533.69;224006;1267;96314;-87
2023/08/04 01:20:53;;;;;;;2.20;1.00;;;;;;;17.81;80.07;99536.05;223430;1264;140362;-89
2023/08/04 01:25:54;;;;;;;4.00;1.20;;;;;;;17.75;80.61;99542.84;223969;1268;139264;-90
2023/08/04 01:30:57;;;;;;;4.10;0.90;;;;;;;17.72;81.12;99550.69;223597;1264;140551;-88
2023/08/04 01:35:57;;;;;;;2.20;1.00;;;;;;;17.68;81.22;99551.13;224091;1264;138937;-89
2023/08/04 01:40:57;;;;;;;1.70;1.20;;;;;;;17.64;81.81;99545.21;223572;1264;142390;-91
2023/08/04 01:45:58;;;;;;;5.30;1.00;;;;;;;17.62;82.01;99543.85;224146;1264;96440;-90
2023/08/04 01:50:58;;;;;;;3.40;1.00;;;;;;;17.58;82.24;99544.52;223447;1264;140465;-86
2023/08/04 01:55:59;;;;;;;2.40;1.00;;;;;;;17.55;82.32;99545.87;224102;1264;138576;-86
2023/08/04 02:00:59;;;;;;;3.50;1.30;;;;;;;17.52;82.79;99545.35;223587;1264;140309;-86
2023/08/04 02:06:00;;;;;;;3.60;1.20;;;;;;;17.49;82.79;99553.64;224067;1264;138675;-87
2023/08/04 02:11:00;;;;;;;4.20;1.30;;;;;;;17.45;83.05;99559.87;223523;1264;141142;-87
2023/08/04 02:16:01;;;;;;;5.00;1.00;;;;;;;17.41;83.81;99568.98;224279;1264;96414;-85
2023/08/04 02:21:02;;;;;;;1.40;0.80;;;;;;;17.35;83.98;99561.72;223531;1264;140804;-87
2023/08/04 02:26:02;;;;;;;2.90;1.10;;;;;;;17.31;84.16;99559.62;224130;1264;138440;-91
2023/08/04 02:31:02;;;;;;;4.80;1.20;;;;;;;17.26;84.58;99560.33;223343;1264;141283;-88
2023/08/04 02:36:03;;;;;;;3.00;1.20;;;;;;;17.22;84.81;99569.27;224147;1263;138806;-89
2023/08/04 02:41:04;;;;;;;3.40;1.30;;;;;;;17.19;84.93;99576.93;223587;1264;141896;-87
2023/08/04 02:46:04;;;;;;;3.00;1.30;;;;;;;17.12;85.51;99580.70;224082;1264;95854;-87
2023/08/04 02:51:10;;;;;;;2.40;1.10;;;;;;;17.02;85.92;99586.95;223436;1263;140333;-87
2023/08/04 02:56:16;;;;;;;2.40;0.90;;;;;;;16.95;86.41;99596.91;224020;1263;138711;-87
2023/08/04 03:01:16;;;;;;;2.10;1.20;;;;;;;16.87;86.79;99607.63;223506;1264;141064;-89
2023/08/04 03:06:17;;;;;;;4.00;1.20;;;;;;;16.79;87.27;99612.35;224100;1263;139423;-90
2023/08/04 03:11:17;;;;;;;3.50;1.30;;;;;;;16.71;87.24;99615.19;223566;1264;140936;-86
2023/08/04 03:16:17;;;;;;;4.30;1.20;;;;;;;16.67;87.84;99625.30;224204;1264;95926;-88
2023/08/04 03:21:18;;;;;;;3.50;1.30;;;;;;;16.59;88.40;99631.86;223576;1264;140744;-91
2023/08/04 03:26:18;;;;;;;3.10;1.50;;;;;;;16.53;88.61;99636.48;224085;1264;138649;-86
2023/08/04 03:31:19;;;;;;;5.40;1.60;;;;;;;16.48;89.06;99639.13;223566;1263;140191;-92
2023/08/04 03:36:19;;;;;;;2.70;1.20;;;;;;;16.44;89.91;99649.98;224107;1263;138657;-86
2023/08/04 03:41:20;;;;;;;2.80;1.30;;;;;;;16.40;89.91;99656.71;223532;1263;141001;-85
2023/08/04 03:46:20;;;;;;;3.70;1.50;;;;;;;16.38;90.61;99665.70;224165;1263;95944;-90
2023/08/04 03:51:22;;;;;;;3.70;1.10;;;;;;;16.35;91.23;99664.25;223512;1263;141734;-86
2023/08/04 03:56:23;;;;;;;6.20;1.40;;;;;;;16.35;91.18;99662.35;224112;1264;140445;-87
2023/08/04 04:01:23;;;;;;;3.20;1.30;;;;;;;16.36;92.06;99673.05;223524;1263;140999;-85
2023/08/04 04:06:24;;;;;;;3.70;1.50;;;;;;;16.38;92.36;99654.45;224035;1264;139247;-85
2023/08/04 04:11:24;;;;;;;5.60;1.50;;;;;;;16.41;92.62;99655.50;223528;1264;142017;-85
2023/08/04 04:16:29;;;;;;;3.30;1.10;;;;;;;16.45;93.02;99657.06;224182;1264;95758;-87
2023/08/04 04:21:30;;;;;;;3.50;1.30;;;;;;;16.49;93.34;99657.92;223510;1264;140882;-88
2023/08/04 04:26:31;;;;;;;1.40;1.10;;;;;;;16.53;93.87;99671.05;224175;1264;139634;-86
2023/08/04 04:31:31;;;;;;;6.80;1.70;;;;;;;16.57;93.69;99672.77;223580;1264;141936;-85
2023/08/04 04:36:32;;;;;;;2.50;1.20;;;;;;;16.63;94.15;99676.31;224105;1264;138749;-92
2023/08/04 04:41:34;;;;;;;2.90;1.40;;;;;;;16.68;94.37;99679.42;223553;1264;141368;-88
2023/08/04 04:46:35;;;;;;;2.60;1.40;;;;;;;16.74;94.69;99679.41;224220;1264;96469;-90
2023/08/04 04:51:35;;;;;;;3.50;1.30;;;;;;;16.81;94.80;99681.39;223436;1264;142047;-88
2023/08/04 04:56:37;;;;;;;2.90;1.30;;;;;;;16.88;94.88;99673.17;224138;1264;138622;-92
2023/08/04 05:01:38;;;;;;;4.20;1.30;;;;;;;16.96;94.99;99670.89;223573;1264;142374;-91
2023/08/04 05:06:38;;;;;;;2.10;1.10;;;;;;;17.03;94.90;99687.70;224095;1264;139098;-89
2023/08/04 05:11:38;;;;;;;4.50;1.30;;;;;;;17.15;95.00;99718.38;223558;1264;140469;-89
2023/08/04 05:16:40;;;;;;;2.40;1.50;;;;;;;17.26;95.03;99724.89;224089;1264;139284;-90
2023/08/04 05:21:41;;;;;;;5.70;1.70;;;;;;;17.40;95.31;99727.23;223609;1264;140326;-86
2023/08/04 05:26:42;;;;;;;4.30;1.40;;;;;;;17.57;94.88;99716.66;223978;1264;139703;-86
2023/08/04 05:31:42;;;;;;;3.50;1.40;;;;;;;17.79;94.79;99716.41;223567;1264;140970;-89
2023/08/04 05:36:43;;;;;;;2.60;1.50;;;;;;;18.05;94.31;99731.38;224119;1264;138621;-86
2023/08/04 05:41:45;;;;;;;8.10;1.90;;;;;;;18.34;93.68;99727.54;223543;1264;141537;-90
2023/08/04 05:46:45;;;;;;;3.40;1.40;;;;;;;18.64;92.99;99737.71;224145;1264;138826;-90
2023/08/04 05:51:46;;;;;;;7.70;1.80;;;;;;;18.92;91.78;99748.58;223594;1264;140972;-86
2023/08/04 05:56:46;;;;;;;5.60;1.40;;;;;;;19.14;91.14;99746.56;224030;1263;138595;-91
2023/08/04 06:01:47;;;;;;;2.30;1.30;;;;;;;19.38;89.92;99742.93;223500;1264;141638;-90
2023/08/04 06:06:48;;;;;;;5.00;1.60;;;;;;;19.63;89.68;99744.84;224069;1264;138853;-90
2023/08/04 06:11:48;;;;;;;3.90;1.70;;;;;;;19.90;88.03;99743.34;223433;1263;142348;-91
2023/08/04 06:16:49;;;;;;;3.90;1.30;;;;;;;20.06;87.31;99741.79;224030;1263;138619;-88
2023/08/04 06:21:49;;;;;;;2.80;1.20;;;;;;;20.28;86.95;99740.14;223554;1263;140517;-88
2023/08/04 06:26:50;;;;;;;4.20;1.30;;;;;;;20.54;85.83;99755.21;223966;1264;139316;-88
2023/08/04 06:31:50;;;;;;;2.60;1.20;;;;;;;20.72;85.58;99761.19;223366;1264;142494;-87
2023/08/04 06:36:51;;;;;;;3.60;1.30;;;;;;;20.96;84.36;99768.87;224094;1264;139197;-88
2023/08/04 06:41:52;;;;;;;3.20;1.40;;;;;;;21.06;82.69;99770.13;223550;1264;140625;-88
2023/08/04 06:46:52;;;;;;;2.60;1.20;;;;;;;21.12;82.80;99777.52;224101;1263;140025;-89
2023/08/04 06:51:53;;;;;;;3.60;1.50;;;;;;;21.29;82.16;99782.95;223550;1264;140482;-91
2023/08/04 06:56:53;;;;;;;4.20;1.20;;;;;;;21.41;81.38;99788.51;224075;1264;138452;-90
2023/08/04 07:01:53;;;;;;;3.70;1.40;;;;;;;21.59;81.31;99796.08;223554;1263;140513;-93
2023/08/04 07:06:56;;;;;;;6.60;1.80;;;;;;;21.73;80.39;99808.20;224119;1263;138613;-91
2023/08/04 07:11:56;;;;;;;2.90;1.40;;;;;;;21.75;79.58;99821.84;223315;1264;141069;-91
2023/08/04 07:16:57;;;;;;;3.80;1.60;;;;;;;21.83;79.41;99821.34;224055;1264;139339;-93
2023/08/04 07:21:57;;;;;;;3.50;1.60;;;;;;;21.91;79.13;99830.92;223445;1265;142014;-91
2023/08/04 07:26:57;;;;;;;5.80;1.70;;;;;;;21.89;78.56;99839.65;224013;1264;139530;-91
2023/08/04 07:31:58;;;;;;;4.50;1.90;;;;;;;21.88;78.35;99841.79;223515;1265;140892;-92
2023/08/04 07:36:58;;;;;;;4.00;1.60;;;;;;;21.81;78.65;99844.65;224047;1264;139159;-91
2023/08/04 07:41:59;;;;;;;4.10;1.80;;;;;;;21.81;78.45;99846.43;223403;1263;141218;-88
2023/08/04 07:46:59;;;;;;;4.90;1.80;;;;;;;21.79;78.21;99846.48;224082;1263;139274;-91
2023/08/04 07:52:00;;;;;;;5.90;1.80;;;;;;;21.81;78.21;99848.17;223501;1264;140610;-92
2023/08/04 07:57:04;;;;;;;3.80;1.60;;;;;;;21.88;78.02;99856.52;224136;1263;138904;-94
2023/08/04 08:02:05;;;;;;;3.50;1.90;;;;;;;21.86;78.14;99860.38;223521;1263;141100;-92
2023/08/04 08:07:05;;;;;;;6.70;2.20;;;;;;;21.86;77.97;99858.00;224142;1264;138584;-91
2023/08/04 08:12:06;;;;;;;7.20;2.10;;;;;;;21.89;77.83;99868.39;223591;1263;140568;-91
2023/08/04 08:17:07;;;;;;;6.60;2.60;;;;;;;21.96;78.02;99877.63;224118;1263;139643;-92
2023/08/04 08:22:08;;;;;;;4.10;2.00;;;;;;;22.08;78.30;99879.14;223698;1264;141860;-90
2023/08/04 08:27:08;;;;;;;4.40;2.00;;;;;;;22.32;77.21;99881.98;224120;1263;138465;-88
2023/08/04 08:32:09;;;;;;;6.80;2.20;;;;;;;22.55;76.75;99886.20;223587;1263;140366;-89
2023/08/04 08:37:09;;;;;;;2.90;1.50;;;;;;;22.94;76.98;99888.77;224115;1264;139497;-91
2023/08/04 08:42:10;;;;;;;5.20;2.00;;;;;;;23.42;75.26;99887.64;223472;1264;141096;-91
2023/08/04 08:47:10;;;;;;;4.40;1.40;;;;;;;23.86;74.01;99884.00;224096;1264;138744;-90
2023/08/04 08:52:11;;;;;;;3.40;1.90;;;;;;;24.27;72.73;99891.78;223712;1264;141004;-92
2023/08/04 08:57:11;;;;;;;5.20;1.90;;;;;;;24.59;71.92;99899.65;224146;1264;138926;-89
2023/08/04 09:02:13;;;;;;;3.90;1.40;;;;;;;25.18;70.81;99908.19;223374;1264;141095;-88
2023/08/04 09:07:13;;;;;;;3.90;1.60;;;;;;;25.34;66.83;99916.38;224029;1264;138660;-91
2023/08/04 09:12:17;;;;;;;3.00;1.80;;;;;;;25.48;66.20;99917.31;223502;1264;140391;-89
2023/08/04 09:17:38;;;;;;;5.00;1.60;;;;;;;25.85;65.07;99920.30;224003;1264;138769;-89
2023/08/04 09:22:42;;;;;;;3.50;1.70;;;;;;;26.12;62.79;99924.25;223563;1264;139463;-92
2023/08/04 09:27:43;;;;;;;2.70;1.40;;;;;;;26.67;62.29;99925.44;224282;1264;96488;-91
2023/08/04 09:32:46;;;;;;;4.80;2.10;;;;;;;27.13;59.16;99925.15;223557;1265;139504;-92
2023/08/04 09:37:47;;;;;;;3.00;1.20;;;;;;;27.31;58.29;99927.52;223980;1264;138092;-91
2023/08/04 09:42:48;;;;;;;3.60;1.30;;;;;;;27.46;58.19;99938.20;223392;1264;283050;-90
2023/08/04 09:47:50;;;;;;;7.50;1.80;;;;;;;27.57;58.05;99942.73;224190;1264;138054;-91
2023/08/04 09:53:02;;;;;;;3.40;1.40;;;;;;;27.54;57.25;99933.33;223515;1264;139684;-90
2023/08/04 09:58:03;;;;;;;2.20;1.20;;;;;;;27.47;57.62;99943.09;224272;1264;110742;-91
2023/08/04 10:03:04;;;;;;;3.10;1.50;;;;;;;27.43;56.78;99949.70;223577;1264;139646;-92
2023/08/04 10:08:06;;;;;;;6.10;1.80;;;;;;;27.07;55.70;99958.23;223979;1264;138643;-90
2023/08/04 10:13:07;;;;;;;5.00;1.40;;;;;;;26.74;56.56;99966.69;223604;1264;140332;-90
2023/08/04 10:18:09;;;;;;;5.00;2.00;;;;;;;26.37;56.44;99981.02;224098;1264;138125;-90
2023/08/04 10:23:12;;;;;;;3.20;1.50;;;;;;;26.18;57.78;99984.39;223626;1264;140744;-89
2023/08/04 10:28:12;;;;;;;5.50;2.00;;;;;;;26.13;57.77;99976.88;224069;1264;95885;-90
2023/08/04 10:33:13;;;;;;;5.20;1.80;;;;;;;26.10;58.88;99969.09;223642;1264;140923;-89
2023/08/04 10:38:13;;;;;;;4.40;1.70;;;;;;;26.31;57.64;99968.89;224176;1264;137874;-89
2023/08/04 10:43:20;;;;;;;4.90;1.90;;;;;;;26.02;57.68;99966.13;223663;1264;139730;-89
2023/08/04 10:48:21;;;;;;;5.20;1.80;;;;;;;25.96;57.50;99976.95;223971;1268;137943;-90
2023/08/04 10:53:22;;;;;;;4.00;2.10;;;;;;;25.80;58.81;99978.11;223448;1264;139716;-89
2023/08/04 10:58:27;;;;;;;4.60;1.80;;;;;;;25.85;58.94;99979.34;224121;1264;96180;-89
2023/08/04 11:03:29;;;;;;;;;;;;;;;25.78;58.35;99981.11;223586;1264;139438;-87
2023/08/04 11:08:30;;;;;;;5.40;2.00;;;;;;;25.66;58.44;99977.98;224163;1264;124205;-86
2023/08/04 11:13:30;;;;;;;5.60;1.70;;;;;;;25.75;57.50;99981.52;223592;1264;140646;-89
2023/08/04 11:18:32;;;;;;;6.80;2.00;;;;;;;25.75;57.38;99989.81;223994;1266;138123;-88
2023/08/04 11:23:33;;;;;;;4.70;2.20;;;;;;;25.73;56.47;99997.99;223505;1264;139806;-88
2023/08/04 11:28:35;;;;;;;4.10;1.80;;;;;;;25.67;57.41;99998.35;224333;1264;95853;-91
2023/08/04 11:33:44;;;;;;;3.80;1.70;;;;;;;25.55;57.64;100001.55;223644;1263;138515;-88
2023/08/04 11:38:45;;;;;;;6.70;1.80;;;;;;;25.51;58.04;100007.95;224038;1263;138472;-90
2023/08/04 11:43:45;;;;;;;5.50;1.90;;;;;;;25.55;58.37;100013.80;223716;1264;141318;-90
2023/08/04 11:48:46;;;;;;;6.70;2.10;;;;;;;25.55;58.06;100017.34;224270;1264;139075;-91
2023/08/04 11:53:52;;;;;;;6.00;2.00;;;;;;;25.44;58.06;100016.38;223654;1265;138732;-90
2023/08/04 11:58:55;;;;;;;3.00;1.80;;;;;;;25.30;58.21;100015.08;224081;1267;138180;-90
2023/08/04 12:03:56;;;;;;;4.20;1.90;;;;;;;25.36;58.37;100010.27;223669;1264;142632;-89
2023/08/04 12:09:00;;;;;;;4.60;2.00;;;;;;;25.76;57.43;100011.55;223656;1265;139988;-88
2023/08/04 12:14:10;;;;;;;3.10;1.60;;;;;;;26.10;56.71;100013.66;224109;1264;138675;-89
2023/08/04 12:19:11;;;;;;;2.90;1.80;;;;;;;26.46;55.50;100015.05;223392;1268;139844;-90
2023/08/04 12:24:12;;;;;;;3.80;1.80;;;;;;;26.44;54.35;100022.32;224199;1264;138538;-87
2023/08/04 12:29:12;;;;;;;3.50;1.70;;;;;;;26.40;56.31;100020.57;223656;1265;140042;-89
2023/08/04 12:34:13;;;;;;;6.10;2.40;;;;;;;26.62;56.24;100021.17;224327;1266;95971;-90
2023/08/04 12:39:13;;;;;;;5.50;2.00;;;;;;;26.99;55.49;100009.31;223641;1264;140028;-88
2023/08/04 12:44:15;;;;;;;4.20;1.90;;;;;;;27.40;54.91;100011.02;224179;1264;138862;-88
2023/08/04 12:49:16;;;;;;;5.20;1.80;;;;;;;27.66;53.29;100004.29;223396;1264;140422;-89
2023/08/04 12:54:17;;;;;;;7.50;1.70;;;;;;;27.97;52.16;100010.11;224209;1266;139382;-89
2023/08/04 12:59:17;;;;;;;4.30;1.20;;;;;;;28.30;50.65;100012.09;223657;1263;140928;-88
2023/08/04 13:04:17;;;;;;;3.30;1.30;;;;;;;28.63;50.29;100005.23;224293;1264;95898;-89
2023/08/04 13:09:18;;;;;;;5.00;1.70;;;;;;;28.73;48.76;100016.70;223624;1264;140923;-88
2023/08/04 13:14:19;;;;;;;2.90;1.30;;;;;;;28.76;48.45;100020.63;223982;1266;138427;-86
2023/08/04 13:19:19;;;;;;;3.70;1.40;;;;;;;28.89;48.79;100021.84;223690;1265;141647;-89
2023/08/04 13:24:20;;;;;;;4.00;1.60;;;;;;;28.92;48.06;100025.08;224156;1264;138262;-86
2023/08/04 13:29:20;;;;;;;3.70;1.30;;;;;;;28.81;47.70;100026.45;223624;1264;140523;-86
2023/08/04 13:34:20;;;;;;;3.30;1.20;;;;;;;28.72;47.13;100035.80;224324;1265;96000;-88
2023/08/04 13:39:21;;;;;;;2.90;1.50;;;;;;;28.51;46.79;100041.29;223421;1266;140730;-88
2023/08/04 13:44:22;;;;;;;4.30;1.50;;;;;;;28.36;47.13;100047.21;224219;1264;138046;-88
2023/08/04 13:49:22;;;;;;;3.90;1.50;;;;;;;28.26;47.04;100049.84;223655;1266;142865;-87
2023/08/04 13:54:23;;;;;;;5.20;1.60;;;;;;;28.08;46.10;100051.34;223987;1265;138249;-90
2023/08/04 13:59:23;;;;;;;6.00;1.60;;;;;;;27.83;45.99;100054.30;223635;1265;139633;-88
2023/08/04 14:04:24;;;;;;;4.70;1.40;;;;;;;27.60;47.20;100053.90;224261;1264;95806;-87
2023/08/04 14:09:25;;;;;;;3.90;1.40;;;;;;;27.56;48.41;100062.96;223420;1264;139899;-87
2023/08/04 14:14:25;;;;;;;5.20;1.60;;;;;;;27.55;48.93;100068.76;223972;1266;138030;-88
2023/08/04 14:19:26;;;;;;;2.60;1.50;;;;;;;27.43;48.31;100079.20;223471;1264;140426;-87
2023/08/04 14:24:26;;;;;;;4.60;1.70;;;;;;;27.35;49.10;100081.17;223967;1266;138130;-88
2023/08/04 14:29:27;;;;;;;4.80;1.80;;;;;;;27.25;47.75;100089.61;223638;1264;141135;-87
2023/08/04 14:34:29;;;;;;;2.90;1.40;;;;;;;27.20;48.64;100093.52;224262;1268;95895;-87
2023/08/04 14:39:29;;;;;;;4.20;1.50;;;;;;;27.20;48.84;100094.85;223531;1266;140120;-90
2023/08/04 14:44:30;;;;;;;4.90;1.80;;;;;;;27.14;47.87;100102.21;223999;1264;138484;-87
2023/08/04 14:49:30;;;;;;;4.40;1.60;;;;;;;27.15;47.64;100113.08;223452;1266;141151;-88
2023/08/04 14:54:31;;;;;;;5.70;1.60;;;;;;;27.13;46.85;100108.88;223956;1264;138760;-86
2023/08/04 14:59:32;;;;;;;7.60;1.90;;;;;;;27.20;48.65;100101.33;223561;1264;139883;-84
2023/08/04 15:04:33;;;;;;;4.30;2.00;;;;;;;27.31;47.68;100099.70;224199;1266;95955;-88
2023/08/04 15:09:33;;;;;;;5.70;1.80;;;;;;;27.26;46.23;100105.96;223548;1266;141038;-87
2023/08/04 15:14:33;;;;;;;4.80;1.80;;;;;;;27.18;46.12;100109.58;224173;1265;138500;-88
2023/08/04 15:19:34;;;;;;;4.00;1.60;;;;;;;27.09;46.31;100109.95;223313;1267;140524;-89
2023/08/04 15:24:34;;;;;;;4.70;1.70;;;;;;;27.02;46.70;100107.32;223913;1268;138117;-88
2023/08/04 15:29:35;;;;;;;4.00;1.60;;;;;;;26.82;46.91;100100.05;223433;1266;140306;-86
2023/08/04 15:34:35;;;;;;;8.20;1.70;;;;;;;26.67;47.30;100099.30;224225;1266;96357;-86
2023/08/04 15:39:37;;;;;;;5.90;1.70;;;;;;;26.50;47.82;100101.27;223538;1266;140231;-87
2023/08/04 15:44:37;;;;;;;8.50;2.00;;;;;;;26.40;48.46;100105.95;224011;1266;138302;-86
2023/08/04 15:49:37;;;;;;;9.80;1.70;;;;;;;26.33;47.52;100106.45;223548;1265;140690;-86
2023/08/04 15:54:38;;;;;;;4.60;1.70;;;;;;;26.21;47.50;100105.42;224151;1266;138166;-88
2023/08/04 15:59:38;;;;;;;4.20;1.90;;;;;;;26.03;48.02;100097.77;223502;1265;140121;-86
2023/08/04 16:04:39;;;;;;;7.60;1.90;;;;;;;26.02;48.80;100096.83;223889;1266;138614;-85
2023/08/04 16:09:39;;;;;;;7.10;1.80;;;;;;;25.95;49.15;100096.42;223709;1264;141154;-86
2023/08/04 16:14:40;;;;;;;5.00;1.70;;;;;;;25.87;50.49;100095.95;224125;1264;138047;-86
2023/08/04 16:19:40;;;;;;;5.00;1.70;;;;;;;25.85;50.06;100097.91;223606;1265;139894;-90
2023/08/04 16:24:42;;;;;;;8.30;2.30;;;;;;;25.79;49.97;100091.27;224150;1265;138243;-87
2023/08/04 16:29:42;;;;;;;6.20;2.30;;;;;;;25.76;50.43;100093.98;223535;1268;140842;-86
2023/08/04 16:34:43;;;;;;;7.10;1.70;;;;;;;25.72;50.39;100097.25;223932;1266;138580;-86
2023/08/04 16:39:44;;;;;;;7.40;1.80;;;;;;;25.69;50.63;100100.32;223414;1264;140441;-85
2023/08/04 16:44:44;;;;;;;7.00;2.30;;;;;;;25.59;51.24;100097.08;224088;1266;138111;-86
2023/08/04 16:49:46;;;;;;;6.00;3.00;;;;;;;25.51;50.69;100097.52;223566;1268;140278;-85
2023/08/04 16:54:46;;;;;;;5.40;2.60;;;;;;;25.39;51.22;100103.55;224084;1268;138631;-86
2023/08/04 16:59:47;;;;;;;5.20;2.50;;;;;;;25.25;52.62;100119.31;223517;1264;140380;-86
2023/08/04 17:04:54;;;;;;;7.50;2.80;;;;;;;25.16;52.94;100113.86;223902;1268;138353;-85
2023/08/04 17:10:00;;;;;;;7.00;2.40;;;;;;;25.05;53.38;100113.59;223427;1268;141436;-85
2023/08/04 17:15:00;;;;;;;5.20;2.30;;;;;;;24.97;53.31;100110.89;223995;1264;138887;-85
2023/08/04 17:20:01;;;;;;;6.80;2.30;;;;;;;24.95;53.93;100113.50;223532;1265;140847;-85
2023/08/04 17:25:01;;;;;;;6.50;2.70;;;;;;;24.85;53.70;100112.02;224100;1268;138562;-83
2023/08/04 17:30:02;;;;;;;12.50;1.90;;;;;;;24.78;52.92;100116.48;223393;1264;140192;-86
2023/08/04 17:35:04;;;;;;;7.60;2.10;;;;;;;24.72;53.45;100123.07;224093;1264;138871;-85
2023/08/04 17:40:05;;;;;;;4.10;1.80;;;;;;;24.66;54.00;100134.56;223646;1264;141616;-85
2023/08/04 17:45:06;;;;;;;9.80;2.10;;;;;;;24.62;54.96;100143.46;223987;1264;138190;-85
2023/08/04 17:50:07;;;;;;;10.80;2.50;;;;;;;24.51;54.62;100135.41;223552;1268;140122;-85
2023/08/04 17:55:07;;;;;;;11.90;2.70;;;;;;;24.40;54.96;100130.57;224059;1264;138419;-85
2023/08/04 18:00:09;;;;;;;12.30;2.40;;;;;;;24.27;56.00;100126.95;223532;1263;141858;-85
2023/08/04 18:05:10;;;;;;;7.40;2.40;;;;;;;24.14;56.44;100123.34;224122;1265;139413;-85
2023/08/04 18:10:11;;;;;;;10.10;2.30;;;;;;;24.01;57.35;100124.62;223441;1268;141191;-84
2023/08/04 18:15:12;;;;;;;9.90;2.30;;;;;;;23.86;58.60;100129.45;224104;1267;138709;-85
2023/08/04 18:20:12;;;;;;;6.20;1.90;;;;;;;23.71;59.20;100134.81;223458;1264;141199;-85
2023/08/04 18:25:13;;;;;;;9.50;2.30;;;;;;;23.63;59.43;100143.21;224148;1264;138085;-85
2023/08/04 18:30:13;;;;;;;5.60;2.20;;;;;;;23.47;59.76;100144.27;223466;1264;140141;-85
2023/08/04 18:35:14;;;;;;;8.20;3.30;;;;;;;23.32;60.87;100156.63;223925;1264;138067;-84
2023/08/04 18:40:15;;;;;;;8.00;2.60;;;;;;;23.17;61.39;100159.99;223644;1264;140525;-85
2023/08/04 18:45:16;;;;;;;10.60;2.70;;;;;;;23.03;62.06;100175.51;224102;1263;139038;-85
2023/08/04 18:50:16;;;;;;;10.30;3.20;;;;;;;22.92;62.81;100182.44;223592;1263;141182;-83
2023/08/04 18:55:17;;;;;;;8.90;2.70;;;;;;;22.78;63.58;100192.92;224147;1264;138946;-85
2023/08/04 19:00:17;;;;;;;9.20;3.20;;;;;;;22.62;64.43;100195.91;223576;1263;141115;-84
2023/08/04 19:05:18;;;;;;;13.30;3.40;;;;;;;22.43;65.00;100205.50;224145;1264;138077;-84
2023/08/04 19:10:18;;;;;;;10.00;2.90;;;;;;;22.25;65.91;100222.16;223651;1263;141018;-84
2023/08/04 19:15:19;;;;;;;11.60;3.40;;;;;;;22.05;66.71;100236.10;224068;1264;138088;-85
2023/08/04 19:20:19;;;;;;;11.60;4.10;;;;;;;21.87;67.19;100246.47;223426;1263;140626;-85
2023/08/04 19:25:19;;;;;;;13.30;3.80;;;;;;;21.72;67.71;100248.35;223863;1264;138266;-85
2023/08/04 19:30:20;;;;;;;9.80;3.90;;;;;;;21.56;68.83;100258.83;223553;1264;140361;-85
2023/08/04 19:35:21;;;;;;;12.20;3.80;;;;;;;21.41;69.17;100260.88;224103;1263;138354;-85
2023/08/04 19:40:21;;;;;;;13.00;3.70;;;;;;;21.27;69.92;100265.36;223605;1264;140780;-84
2023/08/04 19:45:22;;;;;;;10.10;3.30;;;;;;;21.12;70.37;100270.64;224001;1264;138365;-86
2023/08/04 19:50:22;;;;;;;10.70;3.60;;;;;;;21.02;70.82;100271.38;223508;1264;140794;-84
2023/08/04 19:55:22;;;;;;;9.10;3.00;;;;;;;20.90;71.36;100265.20;224095;1264;139624;-85
2023/08/04 20:00:23;;;;;;;10.80;3.10;;;;;;;20.79;72.04;100263.58;223392;1263;140161;-85
2023/08/04 20:05:23;;;;;;;8.00;3.30;;;;;;;20.66;72.49;100257.84;223964;1264;138601;-85
2023/08/04 20:10:23;;;;;;;8.40;3.80;;;;;;;20.54;73.30;100253.22;223473;1264;139956;-86
2023/08/04 20:15:28;;;;;;;9.70;3.00;;;;;;;20.40;73.62;100250.79;223891;1264;138184;-85
2023/08/04 20:20:39;;;;;;;8.80;3.10;;;;;;;20.27;74.49;100255.59;223310;1265;140770;-85
2023/08/04 20:25:39;;;;;;;8.80;3.20;;;;;;;20.14;75.12;100267.49;224000;1264;139105;-84
2023/08/04 20:30:40;;;;;;;8.80;3.50;;;;;;;20.01;75.30;100270.89;223575;1264;141743;-86
2023/08/04 20:35:40;;;;;;;5.70;2.90;;;;;;;19.90;76.20;100271.54;224105;1264;138967;-85
2023/08/04 20:40:40;;;;;;;16.00;3.80;;;;;;;19.78;76.28;100279.54;223565;1264;140611;-85
2023/08/04 20:45:41;;;;;;;10.60;3.40;;;;;;;19.66;76.61;100283.33;224067;1264;96101;-85
2023/08/04 20:50:42;;;;;;;11.30;3.90;;;;;;;19.54;76.90;100293.22;223487;1264;141005;-85
2023/08/04 20:55:43;;;;;;;7.10;3.40;;;;;;;19.42;76.97;100289.52;223925;1265;139543;-85
2023/08/04 21:00:44;;;;;;;6.60;3.50;;;;;;;19.28;77.38;100288.69;223400;1264;140820;-85
2023/08/04 21:05:45;;;;;;;8.10;3.90;;;;;;;19.16;77.57;100291.13;223960;1264;139701;-85
2023/08/04 21:10:46;;;;;;;11.50;3.80;;;;;;;19.11;77.74;100288.38;223480;1264;142199;-87
2023/08/04 21:15:48;;;;;;;9.30;3.70;;;;;;;18.98;78.78;100285.07;223979;1264;96336;-85
2023/08/04 21:20:49;;;;;;;6.80;3.50;;;;;;;18.83;79.56;100288.07;223467;1264;141422;-85
2023/08/04 21:25:50;;;;;;;9.50;3.70;;;;;;;18.70;79.63;100296.27;223971;1264;138778;-85
2023/08/04 21:30:51;;;;;;;6.60;3.40;;;;;;;18.57;79.89;100302.23;223476;1264;142399;-85
2023/08/04 21:36:03;;;;;;;9.60;4.00;;;;;;;18.46;80.57;100301.39;224037;1264;139569;-83
2023/08/04 21:41:05;;;;;;;9.40;3.90;;;;;;;18.31;81.05;100297.31;223282;1264;229049;-84
2023/08/04 21:46:13;;;;;;;15.90;4.40;;;;;;;18.21;81.65;100303.58;223974;1264;108376;-85
2023/08/04 21:51:15;;;;;;;11.50;4.90;;;;;;;18.09;82.30;100302.48;223350;1264;141568;-84
2023/08/04 21:56:15;;;;;;;10.10;5.00;;;;;;;17.98;82.40;100294.79;223977;1264;139261;-84
2023/08/04 22:01:16;;;;;;;8.80;4.50;;;;;;;17.94;82.16;100294.54;223391;1264;141048;-84
2023/08/04 22:06:16;;;;;;;10.90;4.40;;;;;;;17.88;83.23;100294.98;224094;1264;138814;-84
2023/08/04 22:11:17;;;;;;;13.80;5.00;;;;;;;17.75;83.64;100293.19;223558;1264;140974;-85
2023/08/04 22:16:17;;;;;;;11.70;4.30;;;;;;;17.64;84.09;100293.16;224077;1264;95848;-84
2023/08/04 22:21:18;;;;;;;10.70;4.40;;;;;;;17.57;84.35;100286.94;223558;1264;141632;-84
2023/08/04 22:26:18;;;;;;;8.60;3.40;;;;;;;17.49;84.89;100287.33;223824;1264;140315;-84
2023/08/04 22:31:20;;;;;;;9.10;4.40;;;;;;;17.40;84.89;100282.19;223485;1264;140533;-84
2023/08/04 22:36:20;;;;;;;10.40;4.30;;;;;;;17.31;85.24;100284.88;224010;1264;139698;-85
2023/08/04 22:41:21;;;;;;;7.90;3.80;;;;;;;17.25;84.97;100293.10;223446;1264;141443;-84
2023/08/04 22:46:21;;;;;;;10.70;4.20;;;;;;;17.21;85.54;100292.86;224175;1263;95884;-84
2023/08/04 22:51:28;;;;;;;11.50;4.50;;;;;;;17.10;85.80;100289.14;223563;1264;141053;-84
2023/08/04 22:56:28;;;;;;;7.10;3.70;;;;;;;17.02;86.19;100284.76;224080;1263;139994;-84